Search for airport 
image banner adimage banner adimage banner ad
image banner ad

PA77 - Erwinna Private

Located in Erwinna, United States

ICAO - PA77, IATA -

Data provided by Airmate  

General information

Coordinates: N40°30'37" W75°4'36"
Elevation is 350 feet MSL.
Magnetic variation is -12° East
View others Airports in Pennsylvania

Operational data

Special qualification required
Current time UTC:
Current local time:
Weather at : KDYL - Doylestown ( 20 km )
METAR: KDYL 182154Z AUTO 20006KT 10SM CLR 27/06 A3024 RMK AO2 SLP237 T02670056
View NOTAMs / SUP AIP / TFR affecting this airport [VIEW]
Communications frequencies: [VIEW]

Runways:

RWY identifierQFULength (ft)Width (ft)SurfaceLDA (ft)
13156016GRASS
31156016GRASS

Airport contact information

Address: Erwinna United States

Satellite view of PA77